KQSI

2018-11-06 23:45:06Z

Plaintext report →

Current Status: Clear

Temperature
High29.1 °C84.4 °F
Current30.7 °C87.3 °F
Low25.8 °C78.4 °F
Feels Like31.1 °C88.0 °F
Dewpoint17.5 °C63.5 °F
Winds
Speed and Direction2.8 m/s6.3 mi/h 5 kn113 °
Gust0.0 m/s0.00 mi/h 0 kn
SquallUnavailable
Pressure and Humidity
Pressure At Field Level1009.6 mb29.8 in
Pressure At Sea Level1014.6 mb30.0 in
Pressure Trend-2.0 mb-0.1 in
Pressure Tendency 7
Humidity44 %

Station Alarms & Warnings:

Ceilometer Alarms / Warnings:

Ceilometer Data Missing!
Historical Weather Phenomenon Graphs

Additional Information:

  METAR KQSI 062345Z AUTO 11005KT NCD 31/18 A2981 RMK AO2 SLP146 10291
  20258 57020 $=    
Cloud Cover
Layer 1 Undetected
Layer 2 Undetected
Layer 3 Undetected
Winds
2-minute Winds
Minimum1.1 m/s2.46 mi/h 2 kn89 °
Average3.1 m/s6.93 mi/h 6 kn109 °
Maximum5.0 m/s11.18 mi/h 9 kn137 °
10-minute Winds
Minimum0.4 m/s0.89 mi/h 0 kn89 °
Average2.7 m/s6.04 mi/h 5 kn117 °
Maximum5.4 m/s12.08 mi/h10 kn190 °
Precipitation
Intensity0.00 mm/h0.00 in/h
Rainfall
1-hour Total0.00 mm0.00 in
3-hour Total0.00 mm0.00 in
6-hour Total0.00 mm0.00 in
24-hour Total0.00 mm0.00 in
Precipitation
1-hour Total0.00 mm0.00 in
3-hour Total0.00 mm0.00 in
6-hour Total0.00 mm0.00 in
24-hour Total0.00 mm0.00 in